Time;durP1;ratioP1;P1;durP2;ratioP2;P2;SDS_P1;SDS_P2;PMS_P1;PMS_P2;Temp;Humidity;BMP_temperature;BMP_pressure;BME280_temperature;BME280_humidity;BME280_pressure;Samples;Min_cycle;Max_cycle;Signal;HPM_P1;HPM_P2
2022/04/21 00:00:32;;;;;;;11.75;6.47;;;3.40;36.10;;;;;;5034269;28;46598;-66
2022/04/21 00:02:57;;;;;;;12.93;7.53;;;3.40;36.10;;;;;;5026909;28;46466;-66
2022/04/21 00:05:23;;;;;;;11.03;6.30;;;3.50;37.20;;;;;;5036691;28;46441;-64
2022/04/21 00:07:49;;;;;;;11.43;6.50;;;3.40;36.00;;;;;;5029584;28;46307;-67
2022/04/21 00:10:16;;;;;;;16.33;6.75;;;3.50;36.10;;;;;;5029019;28;46371;-66
2022/04/21 00:12:42;;;;;;;13.80;6.93;;;3.50;36.10;;;;;;5028213;28;46413;-64
2022/04/21 00:15:08;;;;;;;10.33;5.80;;;3.50;36.10;;;;;;5028925;28;48256;-63
2022/04/21 00:17:34;;;;;;;12.55;6.88;;;3.50;36.00;;;;;;5032068;28;46318;-64
2022/04/21 00:20:00;;;;;;;11.77;6.10;;;3.60;36.10;;;;;;5028239;28;46424;-63
2022/04/21 00:25:11;;;;;;;12.57;6.87;;;3.60;36.10;;;;;;5028523;28;46848;-64
2022/04/21 00:27:41;;;;;;;9.70;6.15;;;3.30;36.50;;;;;;5030784;28;45927;-64
2022/04/21 00:30:07;;;;;;;10.38;6.40;;;3.00;36.90;;;;;;5026032;28;46444;-64
2022/04/21 00:32:34;;;;;;;23.17;7.17;;;2.70;37.40;;;;;;5028783;28;46329;-63
2022/04/21 00:35:00;;;;;;;11.90;6.67;;;2.50;37.80;;;;;;5029126;28;47131;-65
2022/04/21 00:37:26;;;;;;;16.27;6.70;;;2.40;38.10;;;;;;5027766;28;46373;-62
2022/04/21 00:39:52;;;;;;;10.38;6.53;;;2.30;38.20;;;;;;5033763;28;46335;-64
2022/04/21 00:42:18;;;;;;;12.00;6.43;;;2.30;38.30;;;;;;5038424;28;46545;-63
2022/04/21 00:44:43;;;;;;;15.20;6.67;;;2.30;38.30;;;;;;5031251;28;46424;-63
2022/04/21 00:47:09;;;;;;;11.57;7.00;;;2.40;38.30;;;;;;5032423;28;45818;-64
2022/04/21 00:49:36;;;;;;;13.38;7.47;;;2.30;38.30;;;;;;5034064;28;46227;-64
2022/04/21 00:52:03;;;;;;;9.80;6.60;;;2.20;38.40;;;;;;5029205;28;46360;-64
2022/04/21 00:54:32;;;;;;;11.13;6.20;;;2.20;38.30;;;;;;5034735;28;47107;-65
2022/04/21 00:57:02;;;;;;;13.43;7.60;;;2.20;38.30;;;;;;5027701;28;46347;-64
2022/04/21 00:59:27;;;;;;;14.80;8.30;;;2.20;38.30;;;;;;5030644;28;46431;-65
2022/04/21 01:04:41;;;;;;;20.88;7.50;;;2.10;38.60;;;;;;5031239;28;46672;-64
2022/04/21 01:07:08;;;;;;;9.20;6.45;;;2.10;38.90;;;;;;5031058;28;46330;-63
2022/04/21 01:09:37;;;;;;;14.23;6.95;;;2.00;39.90;;;;;;5023766;28;46458;-63
2022/04/21 01:12:14;;;;;;;11.20;6.07;;;2.00;38.80;;;;;;5030645;28;46608;-64
2022/04/21 01:14:39;;;;;;;17.05;7.20;;;2.00;38.80;;;;;;5024163;28;47072;-64
2022/04/21 01:17:06;;;;;;;13.80;7.37;;;2.10;38.70;;;;;;5025217;28;46422;-63
2022/04/21 01:19:33;;;;;;;14.60;7.35;;;2.10;38.70;;;;;;5033530;28;46466;-67
2022/04/21 01:21:59;;;;;;;11.80;6.95;;;2.10;38.60;;;;;;5036803;28;46430;-65
2022/04/21 01:24:24;;;;;;;17.55;7.15;;;2.20;38.70;;;;;;5033042;28;47254;-63
2022/04/21 01:26:50;;;;;;;12.30;6.60;;;2.10;38.80;;;;;;5033635;28;46458;-63
2022/04/21 01:29:17;;;;;;;11.80;6.80;;;2.00;38.90;;;;;;5031498;28;46291;-64
2022/04/21 01:31:43;;;;;;;11.57;7.00;;;2.00;39.10;;;;;;5029198;28;46355;-64
2022/04/21 01:34:09;;;;;;;9.60;6.78;;;1.90;39.10;;;;;;5036334;28;47071;-63
2022/04/21 01:36:35;;;;;;;12.80;6.77;;;1.90;39.30;;;;;;5027658;28;46377;-66
2022/04/21 01:41:58;;;;;;;10.95;6.63;;;1.80;39.40;;;;;;5010277;28;46459;-65
2022/04/21 01:44:24;;;;;;;9.50;5.90;;;1.90;39.50;;;;;;5029728;28;46306;-65
2022/04/21 01:46:49;;;;;;;12.80;6.60;;;1.80;39.40;;;;;;5030239;28;46383;-65
2022/04/21 01:49:15;;;;;;;10.07;6.40;;;1.80;39.30;;;;;;5027084;28;46513;-66
2022/04/21 01:51:41;;;;;;;16.13;6.70;;;1.90;39.40;;;;;;5031962;28;45928;-64
2022/04/21 01:54:06;;;;;;;11.70;7.17;;;1.90;39.20;;;;;;5024340;28;46392;-67
2022/04/21 01:56:33;;;;;;;11.50;7.40;;;1.90;39.20;;;;;;5031677;28;46330;-67
2022/04/21 01:58:58;;;;;;;13.00;7.10;;;2.00;39.40;;;;;;5032355;28;46677;-63
2022/04/21 02:01:24;;;;;;;12.17;7.40;;;2.00;39.40;;;;;;5032596;28;46544;-65
2022/04/21 02:03:49;;;;;;;12.70;7.07;;;2.00;39.40;;;;;;5026776;28;46904;-65
2022/04/21 02:06:15;;;;;;;11.43;7.80;;;2.00;39.40;;;;;;5032486;28;46442;-63
2022/04/21 02:08:40;;;;;;;12.60;8.20;;;1.90;39.40;;;;;;5027317;28;46565;-65
2022/04/21 02:11:06;;;;;;;12.20;7.97;;;1.90;39.80;;;;;;5033584;28;46607;-63
2022/04/21 02:13:32;;;;;;;15.43;7.50;;;1.80;40.00;;;;;;5029350;28;46354;-66
2022/04/21 02:15:57;;;;;;;12.80;7.87;;;1.80;40.10;;;;;;5025467;28;46340;-66
2022/04/21 02:18:23;;;;;;;11.63;6.70;;;1.70;40.10;;;;;;5033478;28;46419;-67
2022/04/21 02:20:48;;;;;;;12.20;6.50;;;1.70;40.20;;;;;;5023297;28;46437;-63
2022/04/21 02:23:14;;;;;;;12.80;7.70;;;1.80;40.40;;;;;;5027344;28;46592;-64
2022/04/21 02:25:39;;;;;;;9.80;7.07;;;1.80;40.30;;;;;;5031361;28;46438;-63
2022/04/21 02:28:07;;;;;;;11.93;7.40;;;1.80;40.40;;;;;;5032379;28;46408;-67
2022/04/21 02:30:33;;;;;;;12.48;8.05;;;1.90;40.30;;;;;;5025637;28;46518;-65
2022/04/21 02:32:58;;;;;;;14.47;7.47;;;1.90;40.10;;;;;;5027007;28;47027;-64
2022/04/21 02:35:24;;;;;;;10.43;7.07;;;1.90;40.00;;;;;;5027047;28;46398;-65
2022/04/21 02:37:50;;;;;;;18.27;9.53;;;1.90;40.00;;;;;;5026558;28;46399;-66
2022/04/21 02:40:15;;;;;;;10.43;7.17;;;1.90;40.00;;;;;;5029813;28;46485;-65
2022/04/21 02:42:41;;;;;;;14.80;6.67;;;1.90;40.20;;;;;;5027534;28;46485;-65
2022/04/21 02:45:12;;;;;;;10.73;6.40;;;1.90;40.20;;;;;;5030963;28;46525;-64
2022/04/21 02:47:43;;;;;;;16.13;6.55;;;1.90;40.10;;;;;;5027040;28;46378;-66
2022/04/21 02:50:11;;;;;;;11.95;6.82;;;2.00;40.20;;;;;;5033297;28;46592;-64
2022/04/21 02:52:38;;;;;;;10.88;6.75;;;2.00;40.10;;;;;;5028499;28;46368;-64
2022/04/21 02:57:49;;;;;;;14.35;7.90;;;2.10;40.00;;;;;;5028987;28;46383;-63
2022/04/21 03:00:15;;;;;;;13.67;7.00;;;2.10;40.00;;;;;;5027039;28;45949;-62
2022/04/21 03:02:40;;;;;;;13.00;7.47;;;2.20;39.90;;;;;;5033169;28;46458;-62
2022/04/21 03:05:07;;;;;;;10.77;6.77;;;2.20;39.70;;;;;;5026150;28;46399;-65
2022/04/21 03:07:32;;;;;;;12.52;6.50;;;2.30;39.70;;;;;;5028511;28;46422;-64
2022/04/21 03:09:58;;;;;;;12.00;7.10;;;2.40;39.70;;;;;;5035132;28;46433;-65
2022/04/21 03:12:26;;;;;;;12.47;7.63;;;2.50;39.90;;;;;;5034579;28;47061;-64
2022/04/21 03:14:52;;;;;;;11.02;6.95;;;2.40;39.70;;;;;;5033325;28;46286;-64
2022/04/21 03:17:18;;;;;;;10.50;6.97;;;2.30;39.90;;;;;;5038468;28;45771;-62
2022/04/21 03:19:44;;;;;;;13.70;6.53;;;2.30;40.00;;;;;;5027989;28;46588;-64
2022/04/21 03:24:58;;;;;;;11.30;6.95;;;2.40;40.10;;;;;;5032296;28;46434;-64
2022/04/21 03:27:23;;;;;;;13.07;6.75;;;2.40;40.00;;;;;;5032843;28;46418;-67
2022/04/21 03:29:49;;;;;;;12.90;7.30;;;2.40;40.00;;;;;;5031029;28;46379;-65
2022/04/21 03:32:14;;;;;;;12.20;7.53;;;2.40;40.00;;;;;;5026982;28;46354;-65
2022/04/21 03:34:41;;;;;;;11.17;7.00;;;2.40;40.10;;;;;;5031978;28;46381;-65
2022/04/21 03:37:14;;;;;;;12.55;7.50;;;2.50;40.40;;;;;;5024768;28;45760;-64
2022/04/21 03:39:41;;;;;;;13.05;7.28;;;2.50;40.40;;;;;;5028985;28;46394;-67
2022/04/21 03:42:19;;;;;;;11.98;7.32;;;2.50;40.50;;;;;;5028868;28;47244;-64
2022/04/21 03:44:45;;;;;;;12.60;7.65;;;2.50;40.50;;;;;;5035482;28;45865;-67
2022/04/21 03:47:11;;;;;;;12.20;7.32;;;2.50;40.40;;;;;;5030270;28;46346;-64
2022/04/21 03:49:37;;;;;;;15.40;7.13;;;2.60;40.40;;;;;;5037647;28;45828;-65
2022/04/21 03:52:03;;;;;;;14.33;9.60;;;2.70;40.40;;;;;;5033650;28;46466;-63
2022/04/21 03:54:28;;;;;;;13.03;8.20;;;2.70;40.50;;;;;;5034814;28;46386;-65
2022/04/21 03:56:54;;;;;;;13.10;7.83;;;2.70;40.40;;;;;;5037817;28;46295;-63
2022/04/21 03:59:21;;;;;;;13.40;7.13;;;2.70;40.50;;;;;;5031487;28;46339;-65
2022/04/21 04:01:47;;;;;;;12.32;7.38;;;2.70;40.60;;;;;;5033165;28;46438;-65
2022/04/21 04:04:13;;;;;;;12.97;7.10;;;2.80;40.60;;;;;;5033194;28;46336;-63
2022/04/21 04:12:09;;;;;;;16.00;9.60;;;2.90;40.50;;;;;;5031121;28;46618;-65
2022/04/21 04:14:36;;;;;;;14.57;8.30;;;2.90;40.60;;;;;;5033456;28;46457;-64
2022/04/21 04:17:02;;;;;;;14.85;8.05;;;2.90;40.60;;;;;;5026833;28;46522;-64
2022/04/21 04:19:27;;;;;;;13.03;8.03;;;2.90;40.80;;;;;;5032364;28;46420;-64
2022/04/21 04:21:53;;;;;;;12.83;7.00;;;2.90;40.80;;;;;;5026658;28;46395;-67
2022/04/21 04:24:19;;;;;;;14.93;7.30;;;2.90;41.00;;;;;;5028468;28;46562;-64
2022/04/21 04:26:44;;;;;;;13.90;7.50;;;2.80;41.10;;;;;;5031807;28;46245;-64
2022/04/21 04:29:10;;;;;;;12.60;7.43;;;2.80;41.40;;;;;;5037971;28;46465;-65
2022/04/21 04:31:36;;;;;;;13.47;7.43;;;2.90;41.30;;;;;;5029007;28;47402;-64
2022/04/21 04:34:02;;;;;;;11.90;7.57;;;2.90;41.10;;;;;;5034929;28;46671;-66
2022/04/21 04:36:28;;;;;;;10.63;6.50;;;3.00;40.90;;;;;;5033180;28;46381;-65
2022/04/21 04:38:54;;;;;;;14.17;8.10;;;3.10;40.90;;;;;;5032299;28;46021;-64
2022/04/21 04:44:04;;;;;;;11.90;7.43;;;3.00;41.00;;;;;;5032167;28;46699;-64
2022/04/21 04:46:37;;;;;;;13.17;7.60;;;3.00;41.20;;;;;;5033336;28;46844;-63
2022/04/21 04:49:07;;;;;;;13.57;8.07;;;2.90;41.40;;;;;;5029419;28;46449;-65
2022/04/21 04:51:34;;;;;;;12.85;7.40;;;3.00;41.60;;;;;;5032140;28;46357;-64
2022/04/21 04:54:01;;;;;;;13.50;7.30;;;3.10;41.40;;;;;;5027213;28;46419;-64
2022/04/21 04:56:29;;;;;;;13.68;6.75;;;3.20;41.40;;;;;;5034079;28;46545;-65
2022/04/21 04:58:56;;;;;;;10.77;7.60;;;3.30;41.20;;;;;;5029549;28;46367;-64
2022/04/21 05:01:31;;;;;;;14.82;7.05;;;3.30;41.20;;;;;;5031824;28;46434;-65
2022/04/21 05:04:16;;;;;;;14.02;7.30;;;3.40;41.30;;;;;;5037377;28;46340;-64
2022/04/21 05:06:43;;;;;;;11.88;6.95;;;3.50;41.30;;;;;;5033492;28;46326;-65
2022/04/21 05:09:14;;;;;;;13.47;7.40;;;3.50;41.20;;;;;;5039661;28;45932;-64
2022/04/21 05:11:42;;;;;;;13.43;7.97;;;3.60;41.10;;;;;;5037933;28;46981;-64
2022/04/21 05:14:08;;;;;;;15.57;9.48;;;3.80;41.10;;;;;;5036854;28;46433;-65
2022/04/21 05:16:39;;;;;;;12.23;7.80;;;3.90;40.80;;;;;;5044703;28;46429;-64
2022/04/21 05:19:07;;;;;;;12.00;7.73;;;4.00;40.60;;;;;;5039068;28;46320;-64
2022/04/21 05:21:34;;;;;;;13.07;7.40;;;4.20;40.60;;;;;;5036986;28;46374;-67
2022/04/21 05:24:00;;;;;;;11.15;7.22;;;4.30;40.70;;;;;;5036080;28;46426;-65
2022/04/21 05:26:27;;;;;;;14.97;8.33;;;4.40;40.70;;;;;;5039816;28;46394;-67
2022/04/21 05:28:58;;;;;;;15.07;8.03;;;4.50;40.70;;;;;;5040023;28;46633;-67
2022/04/21 05:31:25;;;;;;;13.90;8.00;;;4.80;41.00;;;;;;5030789;28;46895;-66
2022/04/21 05:33:51;;;;;;;18.37;8.97;;;5.00;41.10;;;;;;5028588;28;46339;-63
2022/04/21 05:36:17;;;;;;;10.93;7.47;;;5.30;41.20;;;;;;5032252;28;46389;-64
2022/04/21 05:38:43;;;;;;;24.67;12.30;;;5.70;41.40;;;;;;5025996;28;46373;-66
2022/04/21 05:41:13;;;;;;;24.30;11.00;;;6.10;41.60;;;;;;5029054;28;46346;-65
2022/04/21 05:43:43;;;;;;;18.40;8.43;;;6.50;41.40;;;;;;5030448;28;46398;-63
2022/04/21 05:46:11;;;;;;;24.00;8.50;;;6.50;41.50;;;;;;5034789;28;46487;-64
2022/04/21 05:48:38;;;;;;;11.30;7.60;;;6.50;41.90;;;;;;5028788;28;45805;-63
2022/04/21 05:51:05;;;;;;;13.47;8.47;;;6.40;42.00;;;;;;5033130;28;46475;-63
2022/04/21 05:53:36;;;;;;;13.53;7.70;;;6.40;42.20;;;;;;5026949;28;46298;-66
2022/04/21 05:56:07;;;;;;;15.20;8.07;;;6.50;42.40;;;;;;5031330;28;46418;-65
2022/04/21 05:58:33;;;;;;;16.90;7.57;;;6.60;42.60;;;;;;5027785;28;46099;-64
2022/04/21 06:01:00;;;;;;;18.00;8.10;;;6.70;42.30;;;;;;5022761;28;46334;-64
2022/04/21 06:03:26;;;;;;;21.97;7.90;;;7.00;42.50;;;;;;5029981;28;46494;-65
2022/04/21 06:05:52;;;;;;;14.57;6.87;;;8.10;41.30;;;;;;5021724;28;46599;-65
2022/04/21 06:08:18;;;;;;;13.73;7.57;;;8.60;40.40;;;;;;5028797;28;46481;-65
2022/04/21 06:10:43;;;;;;;26.13;10.67;;;8.50;40.10;;;;;;5032895;28;46066;-64
2022/04/21 06:13:12;;;;;;;32.23;14.47;;;8.90;39.00;;;;;;5035713;28;46311;-65
2022/04/21 06:15:38;;;;;;;16.00;9.40;;;10.00;36.10;;;;;;5033282;28;46559;-65
2022/04/21 06:18:04;;;;;;;22.87;11.00;;;11.10;33.70;;;;;;5032114;28;46470;-66
2022/04/21 06:20:29;;;;;;;34.13;14.13;;;11.90;32.70;;;;;;5030508;28;46426;-65
2022/04/21 06:22:55;;;;;;;22.30;10.43;;;12.50;29.60;;;;;;5031607;28;46416;-65
2022/04/21 06:25:22;;;;;;;22.30;12.03;;;12.90;28.10;;;;;;5035271;28;46421;-67
2022/04/21 06:27:52;;;;;;;17.43;9.47;;;13.00;28.20;;;;;;5031630;28;46544;-67
2022/04/21 06:30:19;;;;;;;17.43;9.30;;;12.10;29.30;;;;;;5034381;28;46452;-66
2022/04/21 06:32:45;;;;;;;23.97;11.30;;;11.20;31.00;;;;;;5037788;28;46413;-66
2022/04/21 06:35:10;;;;;;;13.80;8.27;;;10.60;33.00;;;;;;5036344;28;46559;-66
2022/04/21 06:37:36;;;;;;;13.20;7.87;;;10.50;33.80;;;;;;5034294;28;46694;-67
2022/04/21 06:40:05;;;;;;;10.67;7.37;;;11.50;31.10;;;;;;5032899;28;46414;-68
2022/04/21 06:42:31;;;;;;;20.83;7.77;;;12.30;28.60;;;;;;5036065;28;46405;-65
2022/04/21 06:50:24;;;;;;;13.57;8.80;;;10.50;32.40;;;;;;5031570;28;46608;-67
2022/04/21 06:52:50;;;;;;;15.03;8.10;;;10.00;34.30;;;;;;5028494;28;46316;-64
2022/04/21 06:55:15;;;;;;;15.03;8.67;;;9.70;36.10;;;;;;5037127;28;45815;-65
2022/04/21 06:57:41;;;;;;;20.30;9.17;;;9.70;36.80;;;;;;5033189;28;45845;-66
2022/04/21 07:00:09;;;;;;;16.27;8.60;;;9.60;37.50;;;;;;5031066;28;47559;-68
2022/04/21 07:02:38;;;;;;;12.73;8.97;;;9.70;37.60;;;;;;5040192;28;46436;-66
2022/04/21 07:05:07;;;;;;;12.70;8.93;;;9.70;37.90;;;;;;5035124;28;46398;-66
2022/04/21 07:07:33;;;;;;;10.73;8.00;;;9.80;38.00;;;;;;5035121;28;46593;-66
2022/04/21 07:10:00;;;;;;;17.87;9.77;;;9.90;37.70;;;;;;5030739;28;48341;-65
2022/04/21 07:12:30;;;;;;;15.60;9.50;;;9.90;37.70;;;;;;5028949;28;46510;-65
2022/04/21 07:14:57;;;;;;;13.70;9.87;;;10.00;36.80;;;;;;5035194;28;46404;-66
2022/04/21 07:17:23;;;;;;;15.60;10.00;;;9.80;37.90;;;;;;5032825;28;46396;-68
2022/04/21 07:19:49;;;;;;;13.10;8.50;;;10.00;36.80;;;;;;5033194;28;46496;-66
2022/04/21 07:22:15;;;;;;;14.80;8.60;;;10.20;36.40;;;;;;5030649;28;46436;-65
2022/04/21 07:24:40;;;;;;;12.20;8.60;;;10.20;36.30;;;;;;5031231;28;46341;-66
2022/04/21 07:27:06;;;;;;;12.00;8.30;;;10.00;36.70;;;;;;5031217;28;46374;-64
2022/04/21 07:29:32;;;;;;;12.73;9.03;;;9.80;38.30;;;;;;5030898;28;47192;-64
2022/04/21 07:31:57;;;;;;;15.07;8.90;;;9.90;38.30;;;;;;5033460;28;46386;-66
2022/04/21 07:34:23;;;;;;;13.83;8.17;;;10.00;37.40;;;;;;5028611;28;46471;-66
2022/04/21 07:36:49;;;;;;;12.27;8.57;;;10.20;37.00;;;;;;5029136;28;46327;-65
2022/04/21 07:39:15;;;;;;;18.73;8.63;;;10.20;37.00;;;;;;5029570;28;46359;-66
2022/04/21 07:41:41;;;;;;;14.27;8.53;;;10.10;36.80;;;;;;5029074;28;46396;-65
2022/04/21 07:44:07;;;;;;;13.67;9.27;;;10.10;36.90;;;;;;5033118;28;46460;-69
2022/04/21 07:46:33;;;;;;;12.90;8.33;;;10.20;36.70;;;;;;5029810;28;46533;-64
2022/04/21 07:51:43;;;;;;;18.50;9.37;;;10.20;36.50;;;;;;5031165;28;45808;-64
2022/04/21 07:54:09;;;;;;;17.43;7.53;;;10.00;35.90;;;;;;5034465;28;46325;-64
2022/04/21 07:56:35;;;;;;;11.17;7.83;;;10.00;35.50;;;;;;5027463;28;46781;-65
2022/04/21 07:59:00;;;;;;;13.20;8.57;;;10.00;35.70;;;;;;5035314;28;46674;-64
2022/04/21 08:01:26;;;;;;;14.37;8.93;;;10.10;35.70;;;;;;5026660;28;46436;-65
2022/04/21 08:03:52;;;;;;;15.23;9.33;;;10.30;35.40;;;;;;5029596;28;46431;-65
2022/04/21 08:06:17;;;;;;;14.07;9.50;;;10.40;35.20;;;;;;5033057;28;46543;-65
2022/04/21 08:08:43;;;;;;;12.17;8.80;;;10.40;35.40;;;;;;5030736;28;46419;-65
2022/04/21 08:11:09;;;;;;;15.30;8.97;;;10.80;35.00;;;;;;5031976;28;46351;-65
2022/04/21 08:13:34;;;;;;;11.97;8.73;;;11.00;34.40;;;;;;5037913;28;46579;-65
2022/04/21 08:16:00;;;;;;;16.97;9.27;;;11.10;34.00;;;;;;5034964;28;46932;-66
2022/04/21 08:18:26;;;;;;;13.53;8.70;;;11.10;33.80;;;;;;5033280;28;46450;-65
2022/04/21 08:20:58;;;;;;;13.20;8.63;;;11.20;34.00;;;;;;5029128;28;46295;-65
2022/04/21 08:23:26;;;;;;;16.90;10.60;;;11.30;33.80;;;;;;5029890;28;46420;-64
2022/04/21 08:34:05;;;;;;;15.03;10.07;;;11.80;33.30;;;;;;5032753;28;46460;-66
2022/04/21 08:36:31;;;;;;;15.40;10.30;;;12.10;33.00;;;;;;5034870;28;45860;-67
2022/04/21 08:38:57;;;;;;;15.47;10.10;;;12.10;32.40;;;;;;5033091;28;46463;-65
2022/04/21 08:41:27;;;;;;;13.37;9.40;;;12.00;32.30;;;;;;5035972;28;46323;-67
2022/04/21 08:43:55;;;;;;;11.90;9.30;;;12.00;31.70;;;;;;5032798;28;46433;-63
2022/04/21 08:46:25;;;;;;;15.07;10.33;;;12.10;31.50;;;;;;5031086;28;46738;-66
2022/04/21 08:48:51;;;;;;;16.47;9.47;;;12.20;30.90;;;;;;5030711;28;47402;-64
2022/04/21 08:51:19;;;;;;;17.43;9.80;;;12.50;31.00;;;;;;5029782;28;46429;-65
2022/04/21 08:53:45;;;;;;;11.57;8.33;;;12.60;30.60;;;;;;5032436;28;46398;-66
2022/04/21 08:56:11;;;;;;;12.67;8.43;;;12.50;30.00;;;;;;5031003;28;46069;-65
2022/04/21 08:58:37;;;;;;;15.23;9.80;;;12.70;29.90;;;;;;5034211;28;46413;-64
2022/04/21 09:01:03;;;;;;;13.50;8.63;;;12.70;29.80;;;;;;5030511;28;46444;-65
2022/04/21 09:03:31;;;;;;;12.50;7.80;;;13.00;29.70;;;;;;5031616;28;46331;-64
2022/04/21 09:05:57;;;;;;;12.33;8.10;;;13.10;28.90;;;;;;5033940;28;46542;-64
2022/04/21 09:08:25;;;;;;;16.30;8.33;;;13.20;28.40;;;;;;5029527;28;46930;-64
2022/04/21 09:11:07;;;;;;;12.23;8.60;;;13.20;27.80;;;;;;5030342;28;46393;-64
2022/04/21 09:13:43;;;;;;;12.77;7.83;;;13.20;28.30;;;;;;5026647;28;45894;-64
2022/04/21 09:16:11;;;;;;;14.60;7.67;;;13.20;27.60;;;;;;5031807;28;46509;-65
2022/04/21 09:18:45;;;;;;;12.27;7.57;;;13.20;26.80;;;;;;5028020;28;47112;-64
2022/04/21 09:21:17;;;;;;;12.13;7.90;;;13.20;26.30;;;;;;5038476;28;46424;-65
2022/04/21 09:23:44;;;;;;;13.53;7.90;;;13.10;26.30;;;;;;5038616;28;46368;-64
2022/04/21 09:26:13;;;;;;;10.50;7.43;;;13.20;26.40;;;;;;5036198;28;46351;-63
2022/04/21 09:28:38;;;;;;;13.23;7.57;;;13.40;26.30;;;;;;5028749;28;46593;-66
2022/04/21 09:31:07;;;;;;;12.53;7.50;;;13.30;25.50;;;;;;5030419;28;46438;-61
2022/04/21 09:33:40;;;;;;;11.10;7.97;;;13.40;24.70;;;;;;5031529;28;46451;-64
2022/04/21 09:36:07;;;;;;;9.10;6.40;;;13.40;24.50;;;;;;5032252;28;46697;-64
2022/04/21 09:38:37;;;;;;;17.30;6.90;;;13.50;24.10;;;;;;5028628;28;49407;-63
2022/04/21 09:41:07;;;;;;;9.00;6.40;;;13.40;23.20;;;;;;5033723;28;46356;-65
2022/04/21 09:43:35;;;;;;;12.20;6.23;;;13.30;22.10;;;;;;5030396;28;46428;-64
2022/04/21 09:46:21;;;;;;;13.17;7.30;;;13.40;22.20;;;;;;5032501;28;46358;-64
2022/04/21 09:48:52;;;;;;;11.20;7.17;;;13.50;22.50;;;;;;5031705;28;47941;-64
2022/04/21 09:51:27;;;;;;;14.70;6.97;;;13.50;22.20;;;;;;5030745;28;46502;-63
2022/04/21 09:54:00;;;;;;;9.70;6.80;;;13.50;21.70;;;;;;5031174;28;45835;-64
2022/04/21 09:56:34;;;;;;;14.20;8.17;;;13.50;20.70;;;;;;5025588;28;46335;-62
2022/04/21 09:59:00;;;;;;;11.73;7.60;;;13.70;20.90;;;;;;5031477;28;47453;-63
2022/04/21 10:01:26;;;;;;;10.93;7.27;;;13.70;20.80;;;;;;5027610;28;46384;-63
2022/04/21 10:03:52;;;;;;;11.80;7.00;;;13.60;21.30;;;;;;5030516;28;46383;-63
2022/04/21 10:06:20;;;;;;;10.77;6.00;;;13.70;20.50;;;;;;5028908;28;46850;-63
2022/04/21 10:08:48;;;;;;;12.50;7.13;;;13.70;20.20;;;;;;5027235;28;46639;-64
2022/04/21 10:11:16;;;;;;;10.13;6.93;;;13.80;19.50;;;;;;5032451;28;46457;-64
2022/04/21 10:13:44;;;;;;;12.13;7.47;;;13.80;19.20;;;;;;5025222;28;46444;-61
2022/04/21 10:16:11;;;;;;;10.00;6.73;;;13.80;18.00;;;;;;5034378;28;46509;-62
2022/04/21 10:18:37;;;;;;;9.30;6.57;;;13.80;18.00;;;;;;5026883;28;46618;-63
2022/04/21 10:21:03;;;;;;;9.07;6.40;;;13.80;18.00;;;;;;5027147;28;46414;-63
2022/04/21 10:23:30;;;;;;;10.90;6.83;;;13.80;18.10;;;;;;5030162;28;46588;-62
2022/04/21 10:26:01;;;;;;;9.67;6.70;;;14.00;18.20;;;;;;5029839;28;46370;-63
2022/04/21 10:28:43;;;;;;;9.83;6.57;;;14.00;18.10;;;;;;5027693;28;48180;-62
2022/04/21 10:31:30;;;;;;;10.70;6.90;;;14.00;18.20;;;;;;5025695;28;46201;-62
2022/04/21 10:34:04;;;;;;;12.77;6.80;;;14.10;18.40;;;;;;5030191;28;46364;-62
2022/04/21 10:36:47;;;;;;;12.30;6.53;;;14.10;18.20;;;;;;5023260;28;46389;-62
2022/04/21 10:39:23;;;;;;;18.70;7.80;;;14.20;18.70;;;;;;5038582;28;46251;-63
2022/04/21 10:42:15;;;;;;;11.90;7.20;;;14.20;18.40;;;;;;5033674;28;46322;-63
2022/04/21 10:44:42;;;;;;;10.97;7.43;;;14.20;18.40;;;;;;5024768;28;46451;-63
2022/04/21 10:47:26;;;;;;;10.77;6.87;;;14.40;18.50;;;;;;5031808;28;46374;-62
2022/04/21 10:49:54;;;;;;;8.83;6.70;;;14.50;18.50;;;;;;5027640;28;46807;-62
2022/04/21 10:57:46;;;;;;;17.97;7.67;;;14.40;18.40;;;;;;5021265;28;46260;-62
2022/04/21 11:00:28;;;;;;;9.50;7.00;;;14.50;18.80;;;;;;5027590;28;46411;-63
2022/04/21 11:03:05;;;;;;;14.43;7.30;;;14.40;18.80;;;;;;5027680;28;46293;-61
2022/04/21 11:05:36;;;;;;;14.60;7.87;;;14.40;18.40;;;;;;5028959;28;46358;-62
2022/04/21 11:08:17;;;;;;;10.73;7.07;;;14.50;18.50;;;;;;5034077;28;46261;-63
2022/04/21 11:10:44;;;;;;;12.43;6.60;;;14.60;18.60;;;;;;5030921;28;46695;-62
2022/04/21 11:13:11;;;;;;;13.90;8.10;;;14.50;18.50;;;;;;5033268;28;46395;-62
2022/04/21 11:15:47;;;;;;;11.33;6.67;;;14.50;18.50;;;;;;5032011;28;46638;-62
2022/04/21 11:18:17;;;;;;;10.10;7.80;;;14.30;18.40;;;;;;5033587;28;46346;-62
2022/04/21 11:21:04;;;;;;;18.03;10.67;;;14.30;19.10;;;;;;5033132;28;46519;-63
2022/04/21 11:23:30;;;;;;;12.40;7.33;;;14.50;18.90;;;;;;5031321;28;46501;-62
2022/04/21 11:26:25;;;;;;;13.73;7.60;;;14.60;18.90;;;;;;5033383;28;46431;-63
2022/04/21 11:28:51;;;;;;;12.53;8.00;;;14.70;18.70;;;;;;5030273;28;46473;-63
2022/04/21 11:31:20;;;;;;;11.90;7.53;;;14.70;18.70;;;;;;5031481;28;47253;-64
2022/04/21 11:33:46;;;;;;;14.87;8.00;;;14.80;18.70;;;;;;5032905;28;46494;-65
2022/04/21 11:36:13;;;;;;;12.40;7.63;;;14.80;18.70;;;;;;5028692;28;46485;-62
2022/04/21 11:38:43;;;;;;;13.00;8.00;;;15.00;18.90;;;;;;5033780;28;46436;-63
2022/04/21 11:41:10;;;;;;;14.30;6.57;;;14.80;18.70;;;;;;5031324;28;47291;-63
2022/04/21 11:43:37;;;;;;;11.20;7.73;;;14.80;18.70;;;;;;5034879;28;46406;-62
2022/04/21 11:46:05;;;;;;;11.33;7.90;;;14.70;18.70;;;;;;5037875;28;46465;-62
2022/04/21 11:48:33;;;;;;;10.07;6.83;;;14.80;19.40;;;;;;5026483;28;46445;-61
2022/04/21 11:50:59;;;;;;;11.20;7.70;;;15.00;18.90;;;;;;5031744;28;46843;-61
2022/04/21 11:53:28;;;;;;;9.60;7.07;;;15.00;18.90;;;;;;5028446;28;46509;-62
2022/04/21 11:55:54;;;;;;;11.50;7.73;;;15.10;18.90;;;;;;5032320;28;46287;-62
2022/04/21 11:58:30;;;;;;;11.97;6.67;;;15.10;18.30;;;;;;5033764;28;46220;-63
2022/04/21 12:06:57;;;;;;;12.47;8.33;;;15.00;18.90;;;;;;5032489;28;46409;-63
2022/04/21 12:09:25;;;;;;;12.20;7.63;;;15.00;18.90;;;;;;5030204;28;46551;-63
2022/04/21 12:11:53;;;;;;;13.40;7.13;;;15.30;18.90;;;;;;5034411;28;47606;-62
2022/04/21 12:14:19;;;;;;;9.50;7.47;;;15.30;19.10;;;;;;5031231;28;46539;-62
2022/04/21 12:16:53;;;;;;;11.90;7.20;;;15.50;20.20;;;;;;5032027;28;46405;-63
2022/04/21 12:19:18;;;;;;;13.17;7.03;;;15.50;18.20;;;;;;5029596;28;46458;-62
2022/04/21 12:21:57;;;;;;;16.33;8.07;;;15.50;18.30;;;;;;5030647;28;46497;-63
2022/04/21 12:24:30;;;;;;;11.30;7.30;;;15.50;18.50;;;;;;5033890;28;46252;-63
2022/04/21 12:26:55;;;;;;;17.33;8.23;;;15.40;18.50;;;;;;5033511;28;46362;-64
2022/04/21 12:29:22;;;;;;;12.10;7.50;;;15.40;18.20;;;;;;5030171;28;46493;-63
2022/04/21 12:32:05;;;;;;;19.00;8.50;;;15.50;18.10;;;;;;5035024;28;47323;-62
2022/04/21 12:34:38;;;;;;;15.50;8.40;;;15.50;18.30;;;;;;5039682;28;45822;-62
2022/04/21 12:37:05;;;;;;;12.77;7.90;;;15.60;18.40;;;;;;5036162;28;46472;-62
2022/04/21 12:39:31;;;;;;;9.20;7.20;;;15.60;18.70;;;;;;5036645;28;46502;-62
2022/04/21 12:41:57;;;;;;;12.47;7.10;;;15.60;18.20;;;;;;5036537;28;47302;-62
2022/04/21 12:44:25;;;;;;;9.30;6.53;;;15.50;18.00;;;;;;5040449;28;47198;-63
2022/04/21 12:47:12;;;;;;;13.70;7.30;;;15.60;17.90;;;;;;5036606;28;46326;-63
2022/04/21 12:50:23;;;;;;;22.03;8.60;;;15.60;17.60;;;;;;5039567;28;46399;-63
2022/04/21 12:52:49;;;;;;;12.43;6.43;;;15.70;17.50;;;;;;5015522;28;46577;-62
2022/04/21 12:55:18;;;;;;;20.00;7.97;;;15.70;17.70;;;;;;5018634;28;46476;-64
2022/04/21 12:58:01;;;;;;;10.10;7.23;;;15.70;17.50;;;;;;5028345;28;46503;-61
2022/04/21 13:00:27;;;;;;;14.47;7.17;;;15.70;17.20;;;;;;5032602;28;46466;-63
2022/04/21 13:02:53;;;;;;;15.33;7.40;;;15.50;17.60;;;;;;5034174;28;46705;-63
2022/04/21 13:05:19;;;;;;;14.50;7.80;;;15.50;17.70;;;;;;5035105;28;46452;-63
2022/04/21 13:07:44;;;;;;;9.27;7.00;;;15.70;17.90;;;;;;5034908;28;46495;-60
2022/04/21 13:10:10;;;;;;;15.17;7.73;;;15.70;17.60;;;;;;5039971;28;46939;-62
2022/04/21 13:12:36;;;;;;;11.33;7.30;;;15.70;17.50;;;;;;5040805;28;46055;-63
2022/04/21 13:15:04;;;;;;;11.07;7.33;;;15.60;17.70;;;;;;5040310;28;46429;-62
2022/04/21 13:17:30;;;;;;;11.73;8.00;;;15.40;17.70;;;;;;5037369;28;46724;-64
2022/04/21 13:19:55;;;;;;;14.00;8.00;;;15.50;17.80;;;;;;5037208;28;46382;-65
2022/04/21 13:22:21;;;;;;;14.10;7.67;;;15.40;17.70;;;;;;5034442;28;47230;-62
2022/04/21 13:24:47;;;;;;;12.33;7.37;;;15.40;17.70;;;;;;5036554;28;46384;-62
2022/04/21 13:27:15;;;;;;;11.37;7.93;;;15.40;17.70;;;;;;5039142;28;46607;-62
2022/04/21 13:29:42;;;;;;;10.50;6.93;;;15.70;17.80;;;;;;5034152;28;46483;-61
2022/04/21 13:34:52;;;;;;;11.13;7.50;;;15.90;17.20;;;;;;5036218;28;46328;-62
2022/04/21 13:37:18;;;;;;;11.43;8.50;;;15.80;17.40;;;;;;5035317;28;46240;-62
2022/04/21 13:39:43;;;;;;;8.97;7.13;;;15.70;17.40;;;;;;5036875;28;46536;-62